Time;durP1;ratioP1;P1;durP2;ratioP2;P2;SDS_P1;SDS_P2;PMS_P1;PMS_P2;Temp;Humidity;BMP_temperature;BMP_pressure;BME280_temperature;BME280_humidity;BME280_pressure;Samples;Min_cycle;Max_cycle;Signal;HPM_P1;HPM_P2
2023/10/05 00:01:08;;;;;;;;;3.50;2.00;;;;;14.11;71.77;100590.09;5094590;28;8871;-59
2023/10/05 00:03:39;;;;;;;;;1.00;1.00;;;;;14.09;72.12;100592.00;5094602;28;8795;-60
2023/10/05 00:06:13;;;;;;;;;2.50;2.50;;;;;14.06;72.12;100592.28;5094344;28;8818;-59
2023/10/05 00:08:44;;;;;;;;;3.00;3.00;;;;;14.03;71.42;100590.69;5094451;28;8838;-59
2023/10/05 00:11:14;;;;;;;;;0.00;0.00;;;;;14.03;71.77;100587.19;5094424;28;8832;-58
2023/10/05 00:13:44;;;;;;;;;4.00;3.50;;;;;14.04;71.91;100596.94;5094261;28;8817;-59
2023/10/05 00:16:11;;;;;;;;;1.00;1.00;;;;;14.02;71.84;100590.81;5094069;28;8821;-58
2023/10/05 00:18:39;;;;;;;;;3.25;2.50;;;;;13.99;71.62;100591.94;5094542;28;8833;-58
2023/10/05 00:21:09;;;;;;;;;3.75;3.75;;;;;13.97;72.18;100593.06;5095294;28;8829;-59
2023/10/05 00:23:37;;;;;;;;;1.50;1.50;;;;;13.95;71.63;100593.16;5094795;28;8874;-59
2023/10/05 00:26:05;;;;;;;;;4.00;3.75;;;;;13.94;71.67;100607.53;5094305;28;8817;-60
2023/10/05 00:28:33;;;;;;;;;0.50;0.50;;;;;13.94;72.07;100602.19;5094396;28;8861;-59
2023/10/05 00:31:03;;;;;;;;;3.00;3.00;;;;;13.94;71.82;100609.34;5094106;28;9479;-59
2023/10/05 00:33:30;;;;;;;;;3.25;3.25;;;;;13.93;71.61;100605.84;5096370;28;8852;-59
2023/10/05 00:35:58;;;;;;;;;4.50;4.50;;;;;13.93;71.68;100603.16;5097983;28;8845;-59
2023/10/05 00:38:28;;;;;;;;;0.25;0.25;;;;;13.93;71.77;100603.16;5097973;28;8844;-60
2023/10/05 00:40:58;;;;;;;;;3.25;3.25;;;;;13.93;72.01;100597.81;5097975;28;8821;-60
2023/10/05 00:43:26;;;;;;;;;4.50;3.75;;;;;13.94;71.66;100598.66;5098198;28;8975;-60
2023/10/05 00:45:57;;;;;;;;;2.50;2.50;;;;;13.92;72.05;100600.59;5097899;28;8837;-59
2023/10/05 00:48:29;;;;;;;;;3.00;3.00;;;;;13.91;72.21;100604.25;5097600;28;8979;-59
2023/10/05 00:50:59;;;;;;;;;3.50;3.00;;;;;13.92;71.88;100611.31;5097874;28;8904;-58
2023/10/05 00:53:27;;;;;;;;;4.00;3.75;;;;;13.93;72.18;100607.66;5097738;28;8810;-59
2023/10/05 00:56:07;;;;;;;;;5.00;4.00;;;;;13.93;71.69;100602.31;5097721;28;8830;-59
2023/10/05 00:58:38;;;;;;;;;3.00;3.00;;;;;13.93;72.12;100604.97;5097784;28;9617;-59
2023/10/05 01:01:08;;;;;;;;;4.00;4.00;;;;;13.92;71.91;100598.78;5109712;28;8946;-59
2023/10/05 01:03:47;;;;;;;;;6.00;4.00;;;;;13.92;71.74;100595.25;5096954;28;8833;-59
2023/10/05 01:06:26;;;;;;;;;4.00;3.00;;;;;13.91;71.71;100589.06;5096711;28;8947;-59
2023/10/05 01:09:00;;;;;;;;;4.00;4.00;;;;;13.90;72.27;100587.34;5097849;28;8845;-59
2023/10/05 01:11:33;;;;;;;;;6.25;4.50;;;;;13.90;71.88;100586.50;5097389;28;8829;-59
2023/10/05 01:14:01;;;;;;;;;3.00;2.00;;;;;13.89;72.11;100580.28;5097065;28;8833;-59
2023/10/05 01:16:32;;;;;;;;;3.50;3.00;;;;;13.89;71.55;100580.28;5097106;28;8837;-59
2023/10/05 01:19:02;;;;;;;;;1.00;1.00;;;;;13.89;71.42;100579.44;5096777;28;8802;-59
2023/10/05 01:21:30;;;;;;;;;1.00;0.50;;;;;13.89;71.66;100582.13;5097738;28;8852;-61
2023/10/05 01:23:58;;;;;;;;;2.00;2.00;;;;;13.90;71.56;100581.16;5097129;28;8814;-59
2023/10/05 01:26:26;;;;;;;;;2.50;0.75;;;;;13.92;71.78;100584.53;5097276;28;8846;-59
2023/10/05 01:28:54;;;;;;;;;0.00;0.00;;;;;13.93;71.83;100575.53;5097665;28;8818;-59
2023/10/05 01:31:23;;;;;;;;;2.00;1.00;;;;;13.93;72.05;100575.53;5096787;28;8825;-58
2023/10/05 01:33:51;;;;;;;;;2.00;2.00;;;;;13.92;71.87;100563.97;5097392;28;8872;-59
2023/10/05 01:36:19;;;;;;;;;0.00;0.00;;;;;13.93;72.07;100564.81;5097282;28;8822;-59
2023/10/05 01:38:48;;;;;;;;;0.75;0.75;;;;;13.92;72.00;100568.47;5096964;28;8822;-60
2023/10/05 01:41:21;;;;;;;;;1.50;1.50;;;;;13.92;71.81;100576.50;5096791;28;8956;-58
2023/10/05 01:43:49;;;;;;;;;2.25;0.75;;;;;13.93;71.77;100567.50;5096553;28;8852;-61
2023/10/05 01:46:17;;;;;;;;;2.50;2.00;;;;;13.92;71.77;100565.78;5096856;28;8818;-59
2023/10/05 01:48:45;;;;;;;;;0.00;0.00;;;;;13.95;71.70;100570.88;5096614;28;8850;-61
2023/10/05 01:51:15;;;;;;;;;2.50;2.00;;;;;13.97;72.07;100569.78;5096650;28;8964;-60
2023/10/05 01:53:45;;;;;;;;;2.00;1.00;;;;;13.99;71.61;100583.06;5096785;28;8841;-61
2023/10/05 01:56:14;;;;;;;;;2.50;1.00;;;;;13.99;71.97;100585.72;5096383;28;8856;-62
2023/10/05 01:58:43;;;;;;;;;3.00;3.00;;;;;14.02;71.98;100574.75;5096641;28;8833;-60
2023/10/05 02:01:13;;;;;;;;;0.25;0.25;;;;;14.03;71.94;100576.47;5107262;28;8821;-60
2023/10/05 02:03:41;;;;;;;;;1.00;1.00;;;;;14.04;72.56;100580.84;5105263;28;8805;-59
2023/10/05 02:06:12;;;;;;;;;2.00;2.00;;;;;14.03;71.94;100577.31;5098659;28;8807;-59
2023/10/05 02:08:41;;;;;;;;;0.50;0.50;;;;;14.02;71.98;100580.09;5095770;28;8912;-59
2023/10/05 02:11:09;;;;;;;;;1.00;1.00;;;;;14.00;71.99;100579.41;5095962;28;8825;-61
2023/10/05 02:13:37;;;;;;;;;1.00;1.00;;;;;14.00;72.34;100582.06;5095992;28;8843;-60
2023/10/05 02:16:06;;;;;;;;;1.00;1.00;;;;;13.97;71.56;100585.84;5096711;28;8841;-59
2023/10/05 02:18:36;;;;;;;;;3.00;2.50;;;;;13.96;71.76;100588.69;5095929;28;8843;-59
2023/10/05 02:21:07;;;;;;;;;1.50;1.50;;;;;13.95;72.19;100578.91;5095622;28;8826;-59
2023/10/05 02:23:40;;;;;;;;;1.00;1.00;;;;;13.94;71.90;100582.56;5096031;28;8908;-60
2023/10/05 02:26:10;;;;;;;;;0.00;0.00;;;;;13.90;72.60;100587.34;5096051;28;9545;-59
2023/10/05 02:28:39;;;;;;;;;0.75;0.00;;;;;13.89;72.60;100580.28;5095458;28;9522;-58
2023/10/05 02:31:11;;;;;;;;;0.75;0.75;;;;;13.88;72.55;100588.47;5096424;28;8864;-59
2023/10/05 02:33:40;;;;;;;;;3.25;3.00;;;;;13.86;72.25;100579.69;5095715;28;8822;-59
2023/10/05 02:36:17;;;;;;;;;2.00;1.00;;;;;13.84;72.06;100584.31;5095697;28;8838;-59
2023/10/05 02:38:53;;;;;;;;;3.00;3.00;;;;;13.83;72.64;100590.66;5095832;28;8876;-59
2023/10/05 02:41:25;;;;;;;;;1.00;0.50;;;;;13.82;72.91;100586.28;5095950;28;8834;-59
2023/10/05 02:43:53;;;;;;;;;3.00;3.00;;;;;13.82;72.06;100589.81;5095593;28;8826;-58
2023/10/05 02:46:24;;;;;;;;;3.00;2.00;;;;;13.81;72.38;100585.44;5095611;28;8853;-59
2023/10/05 02:48:52;;;;;;;;;1.00;0.75;;;;;13.82;72.13;100580.94;5096118;28;8972;-59
2023/10/05 02:51:20;;;;;;;;;2.50;1.50;;;;;13.82;72.50;100584.44;5095275;28;8826;-59
2023/10/05 02:53:58;;;;;;;;;0.75;0.75;;;;;13.83;72.09;100580.78;5095377;28;8979;-59
2023/10/05 02:56:28;;;;;;;;;1.00;1.00;;;;;13.85;72.28;100575.31;5095542;28;8836;-60
2023/10/05 02:59:02;;;;;;;;;0.75;0.75;;;;;13.85;72.34;100578.84;5095276;28;8821;-59
2023/10/05 03:01:32;;;;;;;;;0.50;0.25;;;;;13.86;72.18;100574.34;5095296;28;8864;-59
2023/10/05 03:04:03;;;;;;;;;1.00;1.00;;;;;13.85;72.50;100568.16;5105278;28;8839;-59
2023/10/05 03:06:31;;;;;;;;;1.00;1.00;;;;;13.87;72.51;100565.31;5107166;28;8925;-60
2023/10/05 03:09:06;;;;;;;;;0.50;0.00;;;;;13.85;72.68;100561.94;5095034;28;8809;-59
2023/10/05 03:11:34;;;;;;;;;1.00;1.00;;;;;13.83;72.12;100564.72;5094715;28;8913;-60
2023/10/05 03:14:02;;;;;;;;;1.00;1.00;;;;;13.83;72.89;100558.53;5095402;28;8825;-59
2023/10/05 03:16:29;;;;;;;;;3.00;1.00;;;;;13.82;72.62;100556.84;5094942;28;8867;-61
2023/10/05 03:19:00;;;;;;;;;3.00;1.00;;;;;13.80;72.79;100564.13;5094959;28;8826;-59
2023/10/05 03:21:28;;;;;;;;;1.50;1.00;;;;;13.79;72.94;100563.28;5095028;28;8822;-60
2023/10/05 03:23:55;;;;;;;;;1.00;1.00;;;;;13.79;72.94;100557.94;5095381;28;8849;-59
2023/10/05 03:26:23;;;;;;;;;0.50;0.50;;;;;13.79;72.16;100567.78;5094400;28;8840;-58
2023/10/05 03:28:51;;;;;;;;;1.00;1.00;;;;;13.78;72.51;100558.94;5094921;28;8829;-61
2023/10/05 03:31:24;;;;;;;;;2.00;2.00;;;;;13.77;72.61;100553.69;5095172;28;8853;-59
2023/10/05 03:33:52;;;;;;;;;1.00;1.00;;;;;13.78;72.65;100550.03;5095173;28;8833;-59
2023/10/05 03:36:20;;;;;;;;;1.00;1.00;;;;;13.78;72.41;100555.38;5094766;28;8882;-60
2023/10/05 03:38:55;;;;;;;;;1.50;1.50;;;;;13.79;72.62;100557.06;5094461;28;8856;-59
2023/10/05 03:41:25;;;;;;;;;1.50;1.00;;;;;13.80;72.44;100564.13;5094579;28;9912;-58
2023/10/05 03:43:55;;;;;;;;;1.00;1.00;;;;;13.80;73.02;100564.13;5093912;28;8833;-58
2023/10/05 03:46:25;;;;;;;;;3.50;3.00;;;;;13.79;72.47;100557.94;5094215;28;8855;-59
2023/10/05 03:48:59;;;;;;;;;1.00;1.00;;;;;13.78;72.53;100558.06;5094377;28;8829;-59
2023/10/05 03:51:28;;;;;;;;;0.00;0.00;;;;;13.76;73.08;100550.19;5093748;28;8967;-58
2023/10/05 03:53:56;;;;;;;;;0.25;0.25;;;;;13.76;73.16;100560.03;5094540;28;8821;-59
2023/10/05 03:56:27;;;;;;;;;7.25;4.50;;;;;13.73;72.42;100563.78;5094292;28;8817;-60
2023/10/05 03:58:55;;;;;;;;;1.00;1.00;;;;;13.70;73.12;100552.50;5094423;28;8856;-59
2023/10/05 04:01:23;;;;;;;;;2.50;2.00;;;;;13.68;72.73;100549.09;5094331;28;8810;-59
2023/10/05 04:03:50;;;;;;;;;2.00;2.00;;;;;13.66;72.81;100551.06;5094297;28;8945;-60
2023/10/05 04:06:20;;;;;;;;;1.50;1.00;;;;;13.64;72.83;100547.63;5094172;28;8940;-59
2023/10/05 04:08:49;;;;;;;;;2.00;2.00;;;;;13.61;72.76;100547.91;5107732;28;8831;-60
2023/10/05 04:11:18;;;;;;;;;2.50;1.00;;;;;13.59;73.05;100550.69;5103411;28;8886;-59
2023/10/05 04:13:46;;;;;;;;;0.00;0.00;;;;;13.57;73.44;100547.31;5098323;28;8845;-59
2023/10/05 04:16:26;;;;;;;;;1.00;1.00;;;;;13.56;73.00;100547.41;5097961;28;8825;-60
2023/10/05 04:18:54;;;;;;;;;3.50;2.00;;;;;13.55;73.75;100551.06;5098658;28;8894;-60
2023/10/05 04:21:23;;;;;;;;;1.50;1.00;;;;;13.55;73.36;100557.28;5098587;28;8810;-60
2023/10/05 04:23:56;;;;;;;;;1.00;1.00;;;;;13.55;73.27;100557.28;5098165;28;8857;-59
2023/10/05 04:26:27;;;;;;;;;3.00;2.00;;;;;13.57;73.51;100549.13;5098503;28;8810;-60
2023/10/05 04:28:57;;;;;;;;;0.50;0.50;;;;;13.54;73.21;100555.59;5098023;28;8851;-58
2023/10/05 04:31:26;;;;;;;;;3.50;2.00;;;;;13.52;73.65;100554.03;5098202;28;8825;-60
2023/10/05 04:33:54;;;;;;;;;2.75;0.75;;;;;13.50;73.58;100551.47;5098482;28;9503;-59
2023/10/05 04:36:23;;;;;;;;;1.00;1.00;;;;;13.49;73.68;100559.59;5097965;28;8825;-59
2023/10/05 04:38:52;;;;;;;;;1.50;1.50;;;;;13.47;73.55;100556.22;5098007;28;8830;-59
2023/10/05 04:41:20;;;;;;;;;1.00;0.25;;;;;13.44;73.51;100557.31;5097706;28;8841;-59
2023/10/05 04:43:51;;;;;;;;;1.50;1.50;;;;;13.43;73.84;100558.28;5097624;28;8876;-61
2023/10/05 04:46:19;;;;;;;;;1.50;1.50;;;;;13.41;73.49;100554.88;5097823;28;8832;-58
2023/10/05 04:48:56;;;;;;;;;1.00;1.00;;;;;13.41;73.88;100562.06;5097219;28;8968;-58
2023/10/05 04:51:24;;;;;;;;;2.00;2.00;;;;;13.40;74.41;100563.03;5097318;28;8825;-59
2023/10/05 04:53:54;;;;;;;;;3.00;3.00;;;;;13.38;73.68;100559.63;5097589;28;9568;-59
2023/10/05 04:56:34;;;;;;;;;2.00;2.00;;;;;13.37;73.91;100560.63;5097702;28;8855;-57
2023/10/05 05:01:56;;;;;;;;;1.00;1.00;;;;;13.32;73.76;100554.78;5097228;28;8837;-61
2023/10/05 05:04:27;;;;;;;;;1.00;1.00;;;;;13.29;74.04;100557.72;5092690;28;8817;-58
2023/10/05 05:06:55;;;;;;;;;1.00;0.50;;;;;13.27;74.29;100565.84;5077258;28;8868;-59
2023/10/05 05:09:24;;;;;;;;;6.00;2.00;;;;;13.25;74.42;100562.47;5076149;28;8835;-59
2023/10/05 05:11:52;;;;;;;;;3.00;3.00;;;;;13.25;74.11;100566.94;5066295;28;8806;-58
2023/10/05 05:14:23;;;;;;;;;1.50;1.50;;;;;13.23;74.44;100566.22;5096652;28;8830;-58
2023/10/05 05:16:52;;;;;;;;;0.00;0.00;;;;;13.22;74.35;100569.88;5083896;28;8955;-58
2023/10/05 05:19:20;;;;;;;;;2.50;2.50;;;;;13.21;74.43;100566.34;5075043;28;8828;-61
2023/10/05 05:21:48;;;;;;;;;2.00;2.00;;;;;13.21;74.05;100566.34;5076204;28;8824;-58
2023/10/05 05:24:17;;;;;;;;;3.75;3.75;;;;;13.19;74.00;100568.28;5076506;28;8978;-57
2023/10/05 05:26:46;;;;;;;;;1.00;1.00;;;;;13.18;74.45;100565.75;5076397;28;8842;-58
2023/10/05 05:29:14;;;;;;;;;2.00;1.00;;;;;13.17;74.06;100559.56;5090364;28;8922;-60
2023/10/05 05:31:43;;;;;;;;;4.00;3.00;;;;;13.18;74.11;100555.03;5096475;28;8814;-61
2023/10/05 05:34:11;;;;;;;;;3.00;1.50;;;;;13.18;74.35;100560.38;5096156;28;8814;-61
2023/10/05 05:36:39;;;;;;;;;4.00;3.00;;;;;13.19;73.74;100562.09;5096158;28;8860;-58
2023/10/05 05:39:06;;;;;;;;;3.00;1.00;;;;;13.19;74.30;100565.63;5095766;28;8822;-58
2023/10/05 05:41:37;;;;;;;;;1.00;1.00;;;;;13.20;74.03;100561.13;5095849;28;8825;-58
2023/10/05 05:44:06;;;;;;;;;2.00;1.00;;;;;13.20;74.35;100561.97;5095856;28;8837;-61
2023/10/05 05:46:34;;;;;;;;;1.00;1.00;;;;;13.23;74.39;100567.06;5095545;28;8838;-61
2023/10/05 05:49:08;;;;;;;;;1.00;1.00;;;;;13.24;73.72;100565.25;5095564;28;8814;-59
2023/10/05 05:51:35;;;;;;;;;1.00;1.00;;;;;13.25;73.81;100573.16;5095743;28;9310;-57
2023/10/05 05:54:05;;;;;;;;;3.25;3.25;;;;;13.29;73.95;100568.41;5096007;28;8845;-59
2023/10/05 05:56:33;;;;;;;;;1.00;1.00;;;;;13.32;74.37;100557.47;5095392;28;9763;-59
2023/10/05 05:59:00;;;;;;;;;3.25;3.00;;;;;13.34;73.98;100552.81;5095040;28;8850;-61
2023/10/05 06:01:28;;;;;;;;;2.00;2.00;;;;;13.36;74.38;100557.06;5095553;28;8957;-61
2023/10/05 06:03:56;;;;;;;;;0.00;0.00;;;;;13.40;74.19;100552.31;5095695;28;8849;-60
2023/10/05 06:06:24;;;;;;;;;2.00;2.00;;;;;13.43;73.70;100552.09;5094858;28;8810;-61
2023/10/05 06:08:51;;;;;;;;;1.50;1.00;;;;;13.45;74.02;100553.66;5095561;28;8822;-58
2023/10/05 06:11:19;;;;;;;;;4.00;3.00;;;;;13.49;73.89;100562.28;5095747;28;8826;-61
2023/10/05 06:13:47;;;;;;;;;0.00;0.00;;;;;13.54;73.50;100571.66;5105186;28;8832;-61
2023/10/05 06:16:15;;;;;;;;;3.00;3.00;;;;;13.57;73.76;100567.84;5100202;28;8805;-61
2023/10/05 06:18:43;;;;;;;;;1.00;1.00;;;;;13.61;73.74;100574.66;5105423;28;8812;-60
2023/10/05 06:21:11;;;;;;;;;3.00;3.00;;;;;13.64;73.30;100579.75;5107455;28;8812;-61
2023/10/05 06:23:39;;;;;;;;;3.00;2.50;;;;;13.67;73.24;100580.34;5098357;28;8832;-59
2023/10/05 06:26:07;;;;;;;;;0.75;0.75;;;;;13.72;73.19;100579.97;5093213;28;8856;-59
2023/10/05 06:28:35;;;;;;;;;1.00;1.00;;;;;13.74;72.94;100581.56;5094302;28;8899;-58
2023/10/05 06:31:03;;;;;;;;;3.50;2.00;;;;;13.77;73.39;100589.34;5093293;28;8834;-58
2023/10/05 06:33:33;;;;;;;;;3.00;3.00;;;;;13.83;73.42;100590.66;5105755;28;8842;-58
2023/10/05 06:36:01;;;;;;;;;1.50;1.50;;;;;13.87;73.15;100584.94;5094663;28;8853;-59
2023/10/05 06:38:30;;;;;;;;;1.00;1.00;;;;;13.92;72.95;100588.09;5099451;28;8827;-58
2023/10/05 06:40:58;;;;;;;;;2.00;2.00;;;;;13.97;72.83;100590.38;5100387;28;8814;-61
2023/10/05 06:43:26;;;;;;;;;0.50;0.50;;;;;14.00;72.94;100595.47;5093809;28;8914;-60
2023/10/05 06:45:54;;;;;;;;;0.00;0.00;;;;;14.07;72.87;100604.69;5093580;28;8834;-61
2023/10/05 06:48:22;;;;;;;;;3.75;1.00;;;;;14.10;72.80;100599.94;5093135;28;8845;-57
2023/10/05 06:50:52;;;;;;;;;1.00;1.00;;;;;14.14;72.11;100611.25;5092626;28;8853;-60
2023/10/05 06:53:19;;;;;;;;;1.00;1.00;;;;;14.18;72.32;100615.41;5093235;28;8964;-61
2023/10/05 06:55:47;;;;;;;;;1.00;1.00;;;;;14.21;72.75;100618.66;5093354;28;8923;-61
2023/10/05 06:58:15;;;;;;;;;1.00;1.00;;;;;14.26;72.14;100620.97;5093111;28;8857;-60
2023/10/05 07:00:43;;;;;;;;;1.00;1.00;;;;;14.30;71.94;100622.41;5093776;28;8852;-58
2023/10/05 07:03:11;;;;;;;;;3.00;1.00;;;;;14.34;71.88;100613.13;5093189;28;8914;-59
2023/10/05 07:05:39;;;;;;;;;3.25;3.00;;;;;14.37;72.03;100626.25;5092590;28;8834;-58
2023/10/05 07:08:08;;;;;;;;;3.00;3.00;;;;;14.39;71.92;100638.56;5093022;28;8825;-59
2023/10/05 07:10:38;;;;;;;;;0.50;0.25;;;;;14.43;72.53;100639.16;5092790;28;8966;-58
2023/10/05 07:13:08;;;;;;;;;3.00;1.50;;;;;14.46;72.12;100633.53;5093720;28;9543;-58
2023/10/05 07:15:37;;;;;;;;;3.00;3.00;;;;;14.50;72.40;100626.94;5093260;28;8866;-58
2023/10/05 07:18:06;;;;;;;;;5.00;3.00;;;;;14.55;71.77;100622.00;5093934;28;8834;-59
2023/10/05 07:20:36;;;;;;;;;2.50;1.00;;;;;14.59;71.77;100628.84;5093880;28;8823;-59
2023/10/05 07:23:04;;;;;;;;;2.00;2.00;;;;;14.62;71.64;100633.91;5093529;28;8833;-58
2023/10/05 07:25:33;;;;;;;;;3.00;3.00;;;;;14.65;71.66;100634.50;5093169;28;8952;-59
2023/10/05 07:28:03;;;;;;;;;3.50;3.50;;;;;14.67;71.69;100626.34;5093521;28;8939;-59
2023/10/05 07:30:31;;;;;;;;;6.00;3.25;;;;;14.71;71.69;100627.78;5093539;28;8960;-60
2023/10/05 07:32:59;;;;;;;;;3.75;3.00;;;;;14.73;71.89;100633.88;5092834;28;8837;-60
2023/10/05 07:35:42;;;;;;;;;4.00;3.75;;;;;14.75;71.62;100634.56;5075737;28;8843;-58
2023/10/05 07:38:14;;;;;;;;;6.00;4.00;;;;;14.78;71.69;100639.66;5072748;28;8905;-59
2023/10/05 07:40:42;;;;;;;;;3.50;3.00;;;;;14.82;71.68;100630.38;5072626;28;8828;-58
2023/10/05 07:43:11;;;;;;;;;3.50;3.50;;;;;14.86;71.86;100629.16;5071700;28;8840;-60
2023/10/05 07:45:39;;;;;;;;;3.00;2.50;;;;;14.89;71.58;100627.06;5072028;28;8840;-59
2023/10/05 07:48:07;;;;;;;;;3.25;3.00;;;;;14.94;71.83;100630.19;5072340;28;9543;-58
2023/10/05 07:50:37;;;;;;;;;1.00;1.00;;;;;14.95;71.73;100636.41;5071490;28;8824;-59
2023/10/05 07:53:05;;;;;;;;;3.75;3.25;;;;;14.98;71.53;100641.50;5071790;28;8852;-58
2023/10/05 07:55:35;;;;;;;;;2.00;1.00;;;;;15.00;72.12;100652.94;5072165;28;8844;-61
2023/10/05 07:58:05;;;;;;;;;2.50;1.00;;;;;15.03;71.58;100645.47;5072563;28;8878;-59
2023/10/05 08:00:34;;;;;;;;;3.50;3.25;;;;;15.09;71.48;100652.16;5072890;28;8874;-60
2023/10/05 08:03:03;;;;;;;;;1.50;1.00;;;;;15.15;71.29;100654.28;5072711;28;8842;-58
2023/10/05 08:05:31;;;;;;;;;1.00;1.00;;;;;15.19;71.02;100651.22;5088452;28;8826;-59
2023/10/05 08:07:59;;;;;;;;;3.00;1.50;;;;;15.21;71.05;100669.84;5092494;28;8883;-59
2023/10/05 08:10:28;;;;;;;;;3.00;3.00;;;;;15.25;71.08;100671.31;5091817;28;8814;-60
2023/10/05 08:12:58;;;;;;;;;1.00;1.00;;;;;15.28;71.07;100668.34;5092434;28;8885;-59
2023/10/05 08:15:26;;;;;;;;;3.00;1.80;;;;;15.34;71.33;100683.94;5091969;28;8852;-58
2023/10/05 08:17:54;;;;;;;;;4.00;3.50;;;;;15.39;70.77;100679.88;5092810;28;9558;-59
2023/10/05 08:20:24;;;;;;;;;0.00;0.00;;;;;15.44;71.04;100679.47;5092444;28;8962;-61
2023/10/05 08:22:56;;;;;;;;;3.25;1.50;;;;;15.49;70.20;100680.75;5092584;28;8968;-60
2023/10/05 08:25:25;;;;;;;;;3.00;2.75;;;;;15.51;70.88;100689.53;5091553;28;8848;-58
2023/10/05 08:27:57;;;;;;;;;3.00;3.00;;;;;15.53;70.82;100689.38;5091296;28;8922;-59
2023/10/05 08:30:25;;;;;;;;;3.00;2.50;;;;;15.57;70.67;100690.81;5091312;28;8838;-58
2023/10/05 08:32:56;;;;;;;;;1.00;1.00;;;;;15.62;70.41;100696.66;5092432;28;8982;-58
2023/10/05 08:35:40;;;;;;;;;1.20;0.80;;;;;15.64;70.63;100700.88;5092354;28;8857;-60
2023/10/05 08:38:15;;;;;;;;;3.00;3.00;;;;;15.69;70.73;100692.44;5092188;28;8878;-61
2023/10/05 08:40:45;;;;;;;;;1.00;1.00;;;;;15.75;70.62;100698.09;5092315;28;8988;-60
2023/10/05 08:43:16;;;;;;;;;3.60;2.20;;;;;15.85;70.16;100698.97;5093223;28;9600;-60
2023/10/05 08:45:47;;;;;;;;;2.00;2.00;;;;;15.96;70.17;100698.88;5104291;28;8892;-59
2023/10/05 08:48:19;;;;;;;;;1.80;1.80;;;;;16.02;69.61;100690.28;5099706;28;8825;-59
2023/10/05 08:50:47;;;;;;;;;1.00;1.00;;;;;16.13;69.43;100687.47;5092894;28;8834;-60
2023/10/05 08:53:15;;;;;;;;;3.00;3.00;;;;;16.22;69.70;100686.63;5092431;28;8833;-59
2023/10/05 08:55:43;;;;;;;;;3.00;2.60;;;;;16.30;69.55;100692.13;5095679;28;8836;-58
2023/10/05 08:58:18;;;;;;;;;3.00;3.00;;;;;16.36;69.14;100689.75;5096184;28;8853;-59
2023/10/05 09:00:47;;;;;;;;;1.80;1.80;;;;;16.46;68.83;100692.47;5095747;28;8840;-61
2023/10/05 09:06:15;;;;;;;;;5.00;5.00;;;;;16.72;68.50;100690.91;5086178;27;14506;-58
2023/10/05 09:08:43;;;;;;;;;1.00;1.00;;;;;16.87;68.15;100697.56;5069171;28;8837;-58
2023/10/05 09:11:14;;;;;;;;;3.40;3.00;;;;;16.95;67.73;100695.84;5068618;28;8837;-58
2023/10/05 09:13:42;;;;;;;;;2.60;2.20;;;;;17.00;68.15;100707.03;5068878;28;8872;-60
2023/10/05 09:16:15;;;;;;;;;3.00;3.00;;;;;17.06;67.77;100703.75;5070201;28;8874;-60
2023/10/05 09:18:43;;;;;;;;;4.00;2.60;;;;;17.13;68.05;100707.56;5069887;28;9533;-58
2023/10/05 09:21:12;;;;;;;;;3.00;3.00;;;;;17.21;67.50;100710.38;5069980;28;8849;-59
2023/10/05 09:23:42;;;;;;;;;3.00;3.00;;;;;17.26;67.88;100718.03;5069856;28;8844;-58
2023/10/05 09:26:10;;;;;;;;;1.80;1.00;;;;;17.32;67.45;100715.59;5069176;28;8861;-58
2023/10/05 09:28:51;;;;;;;;;1.00;1.00;;;;;17.37;67.02;100713.34;5069330;28;8853;-61
2023/10/05 09:31:19;;;;;;;;;0.60;0.60;;;;;17.43;67.17;100718.16;5069994;28;8879;-59
2023/10/05 09:33:47;;;;;;;;;3.00;3.00;;;;;17.44;67.46;100711.78;5069772;28;8926;-57
2023/10/05 09:36:19;;;;;;;;;3.00;3.00;;;;;17.48;67.40;100713.16;5070240;28;8855;-59
2023/10/05 09:38:48;;;;;;;;;1.00;1.00;;;;;17.55;67.41;100722.34;5069956;28;8840;-59
2023/10/05 09:41:19;;;;;;;;;4.80;3.00;;;;;17.60;66.92;100728.16;5069159;28;8829;-60
2023/10/05 09:43:50;;;;;;;;;1.00;1.00;;;;;17.59;67.41;100734.53;5068837;28;8841;-57
2023/10/05 09:46:20;;;;;;;;;3.00;3.00;;;;;17.62;67.06;100722.63;5074541;28;8843;-58
2023/10/05 09:48:48;;;;;;;;;1.80;1.80;;;;;17.71;66.76;100735.22;5069899;28;8821;-58
2023/10/05 09:51:16;;;;;;;;;2.60;1.40;;;;;17.80;67.20;100729.78;5069816;28;8876;-59
2023/10/05 09:53:44;;;;;;;;;3.00;3.00;;;;;17.83;66.95;100725.94;5086181;28;8914;-59
2023/10/05 09:56:14;;;;;;;;;0.00;0.00;;;;;17.80;66.82;100727.09;5089053;28;8845;-59
2023/10/05 09:58:49;;;;;;;;;3.00;3.00;;;;;17.76;67.43;100733.75;5072535;28;8836;-59
2023/10/05 10:01:20;;;;;;;;;3.00;3.00;;;;;17.75;67.56;100732.06;5081923;28;8830;-58
2023/10/05 10:03:51;;;;;;;;;7.60;3.80;;;;;17.79;66.92;100732.63;5067578;28;8865;-61
2023/10/05 10:06:20;;;;;;;;;4.80;3.40;;;;;17.85;66.95;100732.03;5049486;28;9554;-60
2023/10/05 10:08:53;;;;;;;;;2.60;1.40;;;;;17.88;67.08;100732.59;5049719;28;8985;-60
2023/10/05 10:11:24;;;;;;;;;3.00;3.00;;;;;17.90;66.74;100737.84;5049221;28;8873;-60
2023/10/05 10:13:52;;;;;;;;;1.00;1.00;;;;;17.87;67.23;100736.28;5049261;28;8963;-60
2023/10/05 10:16:22;;;;;;;;;3.00;3.00;;;;;17.87;67.14;100736.28;5041971;28;8876;-60
2023/10/05 10:18:50;;;;;;;;;3.40;3.40;;;;;17.87;67.19;100740.81;5035720;28;8843;-58
2023/10/05 10:21:20;;;;;;;;;4.00;3.20;;;;;17.85;67.18;100743.66;5036109;28;8860;-58
2023/10/05 10:23:49;;;;;;;;;3.20;3.20;;;;;17.90;66.90;100737.84;5035543;28;8840;-58
2023/10/05 10:26:20;;;;;;;;;3.20;3.20;;;;;17.95;66.85;100749.88;5035413;28;8860;-59
2023/10/05 10:28:57;;;;;;;;;2.40;2.40;;;;;17.93;67.22;100746.44;5035798;28;8955;-58
2023/10/05 10:31:48;;;;;;;;;1.80;1.00;;;;;17.93;67.14;100754.53;5035807;28;8848;-58
2023/10/05 10:34:19;;;;;;;;;2.20;1.80;;;;;17.93;67.49;100753.69;5035718;28;8844;-58
2023/10/05 10:36:51;;;;;;;;;3.60;3.60;;;;;17.93;67.09;100751.84;5035298;28;8837;-59
2023/10/05 10:39:24;;;;;;;;;8.60;5.20;;;;;17.97;67.38;100750.56;5035548;28;8860;-58
2023/10/05 10:41:53;;;;;;;;;6.00;5.60;;;;;18.00;66.71;100746.72;5035549;28;9007;-59
2023/10/05 10:44:22;;;;;;;;;1.00;1.00;;;;;17.99;67.35;100759.31;5035570;28;8839;-58
2023/10/05 10:46:54;;;;;;;;;4.00;3.80;;;;;18.00;66.90;100752.09;5035309;28;8852;-58
2023/10/05 10:49:22;;;;;;;;;3.00;3.00;;;;;17.96;66.93;100746.16;5034959;28;8982;-59
2023/10/05 10:51:52;;;;;;;;;3.80;1.00;;;;;17.95;67.26;100749.88;5035664;28;8843;-58
2023/10/05 10:54:22;;;;;;;;;4.00;4.00;;;;;17.87;67.47;100756.97;5034920;28;8837;-58
2023/10/05 10:56:50;;;;;;;;;6.00;3.80;;;;;17.79;67.43;100748.78;5035441;28;8851;-58
2023/10/05 10:59:26;;;;;;;;;3.00;3.00;;;;;17.74;67.66;100741.16;5035670;28;8841;-58
2023/10/05 11:01:53;;;;;;;;;1.80;1.80;;;;;17.76;67.79;100744.53;5053995;28;9532;-58
2023/10/05 11:04:28;;;;;;;;;4.00;3.20;;;;;17.81;67.35;100734.19;5052848;28;8907;-58
2023/10/05 11:06:59;;;;;;;;;2.60;2.60;;;;;17.93;67.19;100738.34;5038840;28;8971;-59
2023/10/05 11:09:35;;;;;;;;;3.00;3.00;;;;;17.97;67.17;100734.38;5054883;28;9520;-58
2023/10/05 11:12:11;;;;;;;;;3.00;3.00;;;;;18.05;67.00;100721.00;5050331;28;8848;-58
2023/10/05 11:14:56;;;;;;;;;3.00;3.00;;;;;18.18;66.80;100713.41;5023898;28;8837;-60
2023/10/05 11:17:23;;;;;;;;;2.60;2.60;;;;;18.21;66.87;100721.19;5034373;28;8853;-58
2023/10/05 11:19:52;;;;;;;;;5.60;4.00;;;;;18.23;66.80;100710.25;5034137;28;8817;-59
2023/10/05 11:22:35;;;;;;;;;4.40;4.00;;;;;18.21;66.63;100710.41;5033448;28;8860;-59
2023/10/05 11:25:14;;;;;;;;;3.40;3.40;;;;;18.15;66.49;100713.69;5034089;28;8949;-59
2023/10/05 11:27:44;;;;;;;;;4.00;3.80;;;;;18.14;66.43;100706.59;5032539;28;9803;-58
2023/10/05 11:30:18;;;;;;;;;3.00;3.00;;;;;18.19;66.51;100719.63;5033630;28;8861;-59
2023/10/05 11:32:56;;;;;;;;;4.00;1.80;;;;;18.26;66.42;100721.59;5034468;28;8845;-59
2023/10/05 11:35:48;;;;;;;;;2.60;2.60;;;;;18.41;66.28;100706.63;5034477;28;8869;-58
2023/10/05 11:38:16;;;;;;;;;1.00;0.40;;;;;18.51;65.92;100710.06;5034269;28;8860;-58
2023/10/05 11:40:49;;;;;;;;;6.60;5.20;;;;;18.75;65.52;100704.91;5034083;28;8868;-59
2023/10/05 11:43:18;;;;;;;;;3.40;3.20;;;;;19.10;64.66;100702.16;5034374;28;8852;-58
2023/10/05 11:45:48;;;;;;;;;3.00;3.00;;;;;19.31;64.30;100709.94;5034261;28;8857;-57
2023/10/05 11:48:20;;;;;;;;;3.20;3.00;;;;;19.52;63.61;100703.16;5034729;28;8841;-59
2023/10/05 11:50:52;;;;;;;;;7.00;4.40;;;;;19.86;63.21;100700.47;5033725;28;8859;-58
2023/10/05 11:53:24;;;;;;;;;1.00;1.00;;;;;20.00;62.48;100703.38;5034040;28;8872;-58